createdAt,value
2022-08-25T00:00:22.856Z,67.58
2022-08-25T00:02:55.660Z,67.17
2022-08-25T00:05:32.392Z,67.00
2022-08-25T00:08:02.502Z,67.28
2022-08-25T00:10:31.696Z,67.58
2022-08-25T00:13:00.513Z,67.85
2022-08-25T00:15:31.496Z,68.07
2022-08-25T00:18:01.139Z,68.39
2022-08-25T00:20:31.231Z,68.49
2022-08-25T00:22:59.920Z,68.51
2022-08-25T00:25:28.465Z,68.40
2022-08-25T00:27:57.369Z,68.22
2022-08-25T00:30:25.912Z,68.00
2022-08-25T00:32:57.584Z,67.60
2022-08-25T00:35:27.733Z,67.89
2022-08-25T00:37:57.028Z,68.29
2022-08-25T00:40:27.115Z,68.29
2022-08-25T00:42:56.119Z,68.26
2022-08-25T00:45:25.007Z,68.11
2022-08-25T00:47:55.000Z,68.43
2022-08-25T00:50:31.989Z,68.79
2022-08-25T00:53:06.595Z,69.03
2022-08-25T00:55:39.813Z,68.94
2022-08-25T00:58:14.545Z,68.70
2022-08-25T01:00:47.557Z,68.94
2022-08-25T01:03:19.148Z,69.05
2022-08-25T01:05:49.144Z,69.30
2022-08-25T01:08:22.119Z,69.55
2022-08-25T01:10:51.772Z,69.72
2022-08-25T01:13:24.871Z,70.20
2022-08-25T01:15:57.648Z,70.20
2022-08-25T01:18:28.356Z,70.20
2022-08-25T01:20:59.866Z,70.27
2022-08-25T01:23:28.334Z,70.01
2022-08-25T01:26:02.987Z,69.72
2022-08-25T01:28:31.553Z,68.88
2022-08-25T01:31:00.120Z,68.75
2022-08-25T01:33:29.154Z,68.76
2022-08-25T01:35:59.079Z,69.21
2022-08-25T01:38:27.835Z,69.53
2022-08-25T01:40:56.351Z,69.55
2022-08-25T01:43:32.727Z,69.65
2022-08-25T01:46:01.225Z,69.64
2022-08-25T01:48:29.779Z,69.96
2022-08-25T01:50:59.674Z,70.33
2022-08-25T01:53:33.489Z,69.98
2022-08-25T01:56:10.193Z,70.20
2022-08-25T01:58:40.868Z,70.17
2022-08-25T02:01:13.506Z,69.79
2022-08-25T02:03:47.016Z,70.14
2022-08-25T02:06:28.609Z,70.26
2022-08-25T02:09:01.094Z,70.16
2022-08-25T02:11:29.866Z,69.53
2022-08-25T02:14:00.121Z,69.19
2022-08-25T02:16:32.620Z,69.70
2022-08-25T02:19:02.509Z,70.12
2022-08-25T02:21:32.488Z,70.19
2022-08-25T02:24:01.374Z,70.41
2022-08-25T02:26:30.454Z,70.35
2022-08-25T02:28:59.130Z,70.73
2022-08-25T02:31:27.902Z,70.34
2022-08-25T02:33:57.471Z,70.27
2022-08-25T02:36:26.430Z,70.55
2022-08-25T02:38:56.463Z,70.38
2022-08-25T02:41:30.728Z,69.92
2022-08-25T02:44:01.298Z,69.43
2022-08-25T02:46:31.172Z,69.17
2022-08-25T02:49:00.117Z,69.20
2022-08-25T02:51:30.234Z,69.25
2022-08-25T02:54:03.107Z,69.63
2022-08-25T02:56:33.343Z,69.91
2022-08-25T02:59:03.025Z,69.80
2022-08-25T03:01:32.731Z,69.92
2022-08-25T03:04:02.119Z,70.23
2022-08-25T03:06:33.231Z,70.52
2022-08-25T03:09:03.031Z,70.50
2022-08-25T03:11:32.735Z,70.46
2022-08-25T03:14:01.154Z,70.93
2022-08-25T03:16:29.617Z,70.91
2022-08-25T03:18:58.477Z,71.13
2022-08-25T03:21:30.191Z,71.20
2022-08-25T03:23:59.890Z,71.25
2022-08-25T03:26:47.177Z,71.08
2022-08-25T03:29:15.686Z,70.85
2022-08-25T03:31:45.756Z,70.88
2022-08-25T03:34:16.757Z,70.77
2022-08-25T03:36:46.263Z,71.00
2022-08-25T03:39:15.857Z,70.62
2022-08-25T03:41:47.200Z,70.21
2022-08-25T03:44:17.040Z,69.82
2022-08-25T03:46:49.280Z,69.71
2022-08-25T03:49:20.531Z,69.64
2022-08-25T03:51:51.299Z,69.42
2022-08-25T03:54:22.929Z,69.54
2022-08-25T03:56:52.886Z,69.51
2022-08-25T03:59:21.596Z,69.67
2022-08-25T04:01:54.859Z,69.66
2022-08-25T04:04:24.663Z,69.90
2022-08-25T04:06:53.961Z,70.20
2022-08-25T04:09:22.775Z,70.04
2022-08-25T04:11:53.586Z,70.33
2022-08-25T04:14:23.682Z,70.24
2022-08-25T04:16:53.100Z,70.07
2022-08-25T04:19:22.672Z,69.56
2022-08-25T04:21:51.689Z,69.59
2022-08-25T04:24:25.178Z,69.88
2022-08-25T04:26:54.978Z,70.09
2022-08-25T04:29:24.985Z,70.25
2022-08-25T04:31:55.393Z,70.34
2022-08-25T04:34:29.432Z,70.78
2022-08-25T04:36:58.763Z,70.89
2022-08-25T04:39:27.243Z,70.75
2022-08-25T04:41:57.444Z,70.53
2022-08-25T04:44:26.099Z,70.23
2022-08-25T04:46:54.884Z,70.55
2022-08-25T04:49:23.415Z,70.82
2022-08-25T04:51:51.947Z,71.06
2022-08-25T04:54:22.181Z,70.98
2022-08-25T04:56:57.957Z,71.26
2022-08-25T04:59:29.088Z,71.19
2022-08-25T05:02:02.383Z,70.88
2022-08-25T05:04:32.663Z,70.79
2022-08-25T05:07:01.483Z,70.97
2022-08-25T05:09:32.021Z,71.31
2022-08-25T05:12:02.879Z,71.35
2022-08-25T05:14:33.753Z,70.75
2022-08-25T05:17:02.587Z,70.10
2022-08-25T05:19:31.436Z,70.15
2022-08-25T05:21:59.950Z,70.63
2022-08-25T05:24:29.618Z,71.26
2022-08-25T05:26:58.113Z,71.80
2022-08-25T05:29:27.145Z,71.93
2022-08-25T05:31:57.102Z,72.30
2022-08-25T05:34:25.907Z,72.48
2022-08-25T05:36:54.603Z,72.20
2022-08-25T05:39:23.073Z,71.96
2022-08-25T05:41:55.679Z,71.46
2022-08-25T05:44:25.647Z,71.16
2022-08-25T05:46:54.172Z,70.89
2022-08-25T05:49:24.121Z,70.78
2022-08-25T05:51:52.563Z,70.64
2022-08-25T05:54:21.000Z,70.63
2022-08-25T05:56:49.635Z,70.68
2022-08-25T05:59:18.223Z,70.71
2022-08-25T06:02:04.044Z,70.76
2022-08-25T06:04:36.563Z,70.63
2022-08-25T06:07:07.080Z,70.65
2022-08-25T06:09:35.639Z,70.67
2022-08-25T06:12:04.637Z,70.74
2022-08-25T06:14:35.218Z,70.87
2022-08-25T06:17:03.826Z,70.62
2022-08-25T06:19:33.747Z,70.88
2022-08-25T06:22:05.527Z,70.93
2022-08-25T06:24:34.705Z,70.78
2022-08-25T06:27:03.247Z,70.82
2022-08-25T06:29:31.763Z,70.69
2022-08-25T06:32:00.207Z,70.80
2022-08-25T06:34:28.687Z,70.88
2022-08-25T06:36:58.453Z,70.90
2022-08-25T06:39:26.951Z,70.79
2022-08-25T06:41:57.832Z,70.89
2022-08-25T06:44:27.512Z,70.70
2022-08-25T06:46:56.046Z,70.76
2022-08-25T06:49:28.318Z,70.74
2022-08-25T06:52:00.026Z,70.76
2022-08-25T06:54:28.688Z,70.65
2022-08-25T06:56:57.150Z,70.72
2022-08-25T06:59:26.536Z,70.54
2022-08-25T07:02:01.092Z,70.44
2022-08-25T07:04:32.268Z,70.52
2022-08-25T07:07:02.812Z,70.58
2022-08-25T07:09:33.588Z,70.32
2022-08-25T07:12:04.681Z,70.22
2022-08-25T07:14:33.128Z,70.23
2022-08-25T07:17:02.504Z,70.32
2022-08-25T07:19:41.017Z,70.44
2022-08-25T07:22:11.136Z,70.37
2022-08-25T07:24:39.663Z,70.28
2022-08-25T07:27:08.643Z,70.12
2022-08-25T07:29:42.318Z,70.02
2022-08-25T07:32:11.311Z,69.75
2022-08-25T07:34:57.173Z,69.85
2022-08-25T07:40:18.698Z,69.79
2022-08-25T07:42:47.288Z,69.85
2022-08-25T07:45:18.383Z,69.90
2022-08-25T07:47:53.796Z,70.03
2022-08-25T07:50:22.521Z,70.04
2022-08-25T07:52:55.402Z,70.13
2022-08-25T07:55:25.621Z,70.19
2022-08-25T07:57:57.189Z,70.35
2022-08-25T08:00:33.308Z,70.38
2022-08-25T08:03:03.981Z,70.37
2022-08-25T08:05:33.385Z,70.37
2022-08-25T08:08:04.423Z,70.09
2022-08-25T08:11:00.539Z,69.99
2022-08-25T08:13:26.325Z,69.80
2022-08-25T08:15:54.859Z,69.86
2022-08-25T08:18:24.512Z,69.52
2022-08-25T08:20:53.772Z,69.28
2022-08-25T08:23:27.716Z,69.34
2022-08-25T08:25:56.363Z,69.45
2022-08-25T08:28:27.871Z,69.11
2022-08-25T08:30:56.579Z,69.19
2022-08-25T08:33:26.232Z,68.74
2022-08-25T08:36:05.228Z,68.50
2022-08-25T08:38:36.331Z,68.72
2022-08-25T08:41:29.289Z,68.33
2022-08-25T08:44:09.527Z,68.63
2022-08-25T08:46:46.188Z,68.59
2022-08-25T08:49:26.967Z,68.47
2022-08-25T08:52:01.751Z,68.33
2022-08-25T08:54:37.873Z,67.98
2022-08-25T08:57:13.888Z,68.11
2022-08-25T08:59:49.055Z,67.68
2022-08-25T09:02:50.149Z,67.84
2022-08-25T09:05:19.994Z,67.64
2022-08-25T09:07:54.727Z,67.46
2022-08-25T09:10:27.444Z,66.98
2022-08-25T09:13:12.827Z,66.68
2022-08-25T09:16:09.551Z,66.50
2022-08-25T09:18:52.749Z,66.39
2022-08-25T09:21:33.723Z,66.63
2022-08-25T09:24:22.989Z,66.00
2022-08-25T09:27:03.353Z,66.40
2022-08-25T09:29:43.547Z,66.37
2022-08-25T09:32:12.411Z,66.24
2022-08-25T09:34:44.525Z,66.11
2022-08-25T09:37:12.983Z,66.06
2022-08-25T09:39:42.247Z,65.65
2022-08-25T09:42:12.135Z,65.56
2022-08-25T09:44:43.895Z,65.21
2022-08-25T09:47:22.012Z,65.26
2022-08-25T09:49:54.488Z,65.24
2022-08-25T09:52:31.949Z,64.92
2022-08-25T09:55:18.079Z,64.56
2022-08-25T09:57:53.064Z,64.40
2022-08-25T10:00:24.863Z,63.87
2022-08-25T10:03:07.995Z,63.92
2022-08-25T10:05:49.064Z,64.10
2022-08-25T10:08:31.425Z,63.59
2022-08-25T10:11:02.471Z,63.11
2022-08-25T10:13:38.345Z,62.48
2022-08-25T10:16:20.345Z,62.19
2022-08-25T10:19:06.693Z,61.69
2022-08-25T10:21:38.139Z,61.93
2022-08-25T10:24:08.075Z,61.66
2022-08-25T10:26:53.459Z,61.26
2022-08-25T10:29:40.839Z,60.44
2022-08-25T10:32:17.288Z,60.00
2022-08-25T10:34:51.828Z,59.33
2022-08-25T10:37:36.511Z,58.36
2022-08-25T10:40:16.713Z,58.26
2022-08-25T10:43:00.651Z,57.98
2022-08-25T10:45:43.922Z,57.88
2022-08-25T10:48:46.322Z,57.16
2022-08-25T10:51:41.203Z,57.21
2022-08-25T10:54:25.593Z,57.15
2022-08-25T10:57:03.323Z,57.17
2022-08-25T10:59:54.767Z,57.16
2022-08-25T11:03:00.941Z,56.44
2022-08-25T11:05:33.123Z,56.74
2022-08-25T11:08:09.805Z,55.96
2022-08-25T11:10:45.851Z,55.62
2022-08-25T11:13:27.863Z,55.18
2022-08-25T11:16:19.215Z,54.49
2022-08-25T11:18:55.422Z,54.07
2022-08-25T11:21:34.771Z,53.91
2022-08-25T11:24:14.464Z,53.46
2022-08-25T11:26:51.051Z,53.22
2022-08-25T11:29:22.897Z,53.17
2022-08-25T11:31:54.543Z,53.23
2022-08-25T11:34:25.354Z,53.28
2022-08-25T11:37:02.179Z,53.33
2022-08-25T11:39:43.360Z,53.13
2022-08-25T11:42:26.203Z,52.81
2022-08-25T11:45:08.156Z,52.86
2022-08-25T11:47:52.403Z,52.72
2022-08-25T11:50:32.758Z,52.18
2022-08-25T11:53:28.406Z,52.09
2022-08-25T11:56:02.813Z,52.28
2022-08-25T11:58:40.949Z,51.61
2022-08-25T12:01:13.148Z,51.04
2022-08-25T12:03:51.599Z,51.39
2022-08-25T12:06:29.465Z,51.44
2022-08-25T12:09:21.653Z,50.54
2022-08-25T12:11:54.595Z,50.32
2022-08-25T12:14:44.355Z,49.94
2022-08-25T12:17:24.194Z,50.00
2022-08-25T12:19:59.487Z,49.26
2022-08-25T12:22:55.675Z,49.27
2022-08-25T12:25:51.696Z,48.39
2022-08-25T12:28:42.075Z,48.13
2022-08-25T12:31:40.260Z,48.06
2022-08-25T12:34:24.326Z,48.74
2022-08-25T12:37:06.457Z,48.08
2022-08-25T12:39:44.551Z,47.63
2022-08-25T12:42:26.331Z,47.50
2022-08-25T12:45:14.087Z,46.58
2022-08-25T12:47:44.936Z,46.53
2022-08-25T12:50:37.451Z,46.27
2022-08-25T12:53:16.652Z,45.71
2022-08-25T12:55:51.040Z,45.65
2022-08-25T12:58:19.517Z,46.04
2022-08-25T13:01:09.177Z,45.64
2022-08-25T13:04:31.403Z,45.33
2022-08-25T13:07:14.590Z,45.82
2022-08-25T13:10:19.468Z,45.64
2022-08-25T13:12:54.215Z,46.09
2022-08-25T13:15:35.894Z,46.01
2022-08-25T13:18:23.907Z,46.12
2022-08-25T13:20:56.034Z,45.97
2022-08-25T13:23:35.300Z,45.87
2022-08-25T13:26:04.988Z,45.99
2022-08-25T13:28:37.443Z,45.68
2022-08-25T13:31:16.444Z,45.62
2022-08-25T13:33:54.994Z,45.64
2022-08-25T13:36:47.038Z,45.75
2022-08-25T13:39:45.724Z,45.31
2022-08-25T13:42:16.032Z,45.48
2022-08-25T13:44:52.373Z,44.83
2022-08-25T13:47:43.747Z,44.71
2022-08-25T13:50:30.247Z,44.95
2022-08-25T13:53:01.696Z,45.37
2022-08-25T13:55:38.147Z,45.16
2022-08-25T13:58:24.919Z,45.30
2022-08-25T14:01:22.994Z,44.78
2022-08-25T14:04:32.168Z,44.07
2022-08-25T14:07:19.498Z,44.30
2022-08-25T14:09:51.624Z,43.71
2022-08-25T14:12:41.858Z,43.43
2022-08-25T14:15:33.422Z,43.09
2022-08-25T14:18:07.419Z,43.10
2022-08-25T14:20:37.956Z,43.03
2022-08-25T14:23:10.173Z,42.96
2022-08-25T14:25:40.684Z,43.26
2022-08-25T14:28:13.699Z,43.23
2022-08-25T14:30:47.165Z,42.77
2022-08-25T14:33:19.722Z,42.46
2022-08-25T14:35:53.774Z,42.43
2022-08-25T14:38:23.435Z,41.88
2022-08-25T14:40:52.012Z,41.54
2022-08-25T14:43:20.908Z,41.70
2022-08-25T14:45:53.578Z,41.82
2022-08-25T14:48:27.936Z,41.86
2022-08-25T14:50:59.887Z,41.90
2022-08-25T14:53:29.256Z,42.02
2022-08-25T14:55:59.305Z,42.13
2022-08-25T14:58:33.815Z,42.67
2022-08-25T15:01:05.535Z,43.14
2022-08-25T15:03:39.154Z,43.21
2022-08-25T15:06:08.142Z,43.33
2022-08-25T15:08:57.843Z,43.52
2022-08-25T15:11:26.827Z,44.01
2022-08-25T15:13:58.363Z,44.07
2022-08-25T15:16:33.945Z,44.26
2022-08-25T15:19:07.098Z,44.23
2022-08-25T15:21:37.109Z,44.33
2022-08-25T15:24:06.141Z,44.26
2022-08-25T15:26:41.097Z,44.75
2022-08-25T15:29:09.687Z,45.27
2022-08-25T15:31:40.052Z,44.84
2022-08-25T15:34:11.768Z,45.18
2022-08-25T15:36:41.512Z,45.25
2022-08-25T15:39:10.988Z,45.07
2022-08-25T15:41:39.537Z,45.00
2022-08-25T15:44:12.553Z,45.27
2022-08-25T15:46:42.040Z,45.56
2022-08-25T15:49:23.372Z,45.96
2022-08-25T15:51:54.402Z,45.94
2022-08-25T15:54:24.073Z,45.64
2022-08-25T15:56:56.704Z,45.54
2022-08-25T15:59:25.963Z,45.49
2022-08-25T16:01:56.382Z,45.33
2022-08-25T16:04:28.651Z,45.66
2022-08-25T16:06:58.266Z,45.77
2022-08-25T16:09:27.267Z,45.97
2022-08-25T16:11:58.280Z,46.00
2022-08-25T16:14:29.243Z,46.51
2022-08-25T16:16:59.732Z,46.76
2022-08-25T16:19:30.217Z,46.54
2022-08-25T16:21:59.858Z,47.05
2022-08-25T16:24:28.795Z,47.25
2022-08-25T16:27:11.090Z,47.42
2022-08-25T16:29:42.260Z,47.68
2022-08-25T16:32:11.879Z,48.47
2022-08-25T16:34:44.544Z,48.53
2022-08-25T16:37:13.625Z,49.55
2022-08-25T16:39:45.493Z,49.57
2022-08-25T16:42:14.232Z,50.07
2022-08-25T16:44:42.848Z,49.99
2022-08-25T16:47:14.110Z,50.36
2022-08-25T16:49:44.572Z,50.51
2022-08-25T16:52:28.407Z,50.45
2022-08-25T16:55:16.500Z,50.07
2022-08-25T16:57:48.125Z,49.93
2022-08-25T17:00:21.831Z,50.01
2022-08-25T17:02:51.604Z,49.72
2022-08-25T17:05:21.974Z,49.31
2022-08-25T17:08:11.147Z,49.41
2022-08-25T17:10:42.408Z,49.72
2022-08-25T17:13:12.840Z,49.95
2022-08-25T17:15:43.659Z,49.81
2022-08-25T17:18:14.159Z,49.61
2022-08-25T17:20:45.363Z,50.12
2022-08-25T17:23:14.347Z,50.38
2022-08-25T17:25:43.724Z,50.38
2022-08-25T17:28:12.933Z,50.67
2022-08-25T17:30:43.414Z,50.95
2022-08-25T17:33:12.300Z,51.25
2022-08-25T17:35:43.516Z,51.60
2022-08-25T17:38:13.487Z,51.90
2022-08-25T17:40:43.422Z,52.10
2022-08-25T17:43:12.847Z,52.15
2022-08-25T17:45:41.905Z,52.36
2022-08-25T17:48:12.927Z,52.64
2022-08-25T17:50:41.773Z,52.59
2022-08-25T17:53:13.602Z,52.99
2022-08-25T17:55:45.932Z,53.28
2022-08-25T17:58:17.450Z,53.09
2022-08-25T18:00:47.125Z,53.23
2022-08-25T18:03:15.796Z,53.54
2022-08-25T18:05:45.284Z,53.56
2022-08-25T18:08:17.072Z,53.78
2022-08-25T18:10:48.958Z,53.97
2022-08-25T18:13:18.242Z,54.19
2022-08-25T18:15:47.022Z,54.13
2022-08-25T18:18:16.121Z,54.32
2022-08-25T18:20:46.639Z,54.49
2022-08-25T18:23:17.420Z,54.75
2022-08-25T18:25:45.926Z,54.99
2022-08-25T18:28:16.142Z,54.79
2022-08-25T18:30:45.026Z,55.08
2022-08-25T18:33:13.660Z,55.33
2022-08-25T18:35:42.775Z,55.49
2022-08-25T18:38:28.792Z,55.74
2022-08-25T18:41:00.106Z,55.81
2022-08-25T18:43:31.939Z,56.20
2022-08-25T18:46:04.762Z,56.34
2022-08-25T18:48:34.555Z,56.37
2022-08-25T18:51:03.631Z,56.38
2022-08-25T18:53:49.548Z,56.32
2022-08-25T18:56:20.843Z,56.47
2022-08-25T18:58:49.931Z,57.00
2022-08-25T19:01:20.619Z,57.27
2022-08-25T19:03:53.318Z,57.06
2022-08-25T19:06:31.716Z,57.46
2022-08-25T19:09:10.172Z,58.22
2022-08-25T19:11:47.979Z,58.83
2022-08-25T19:14:32.607Z,59.29
2022-08-25T19:17:08.871Z,59.35
2022-08-25T19:19:40.247Z,60.02
2022-08-25T19:22:37.946Z,59.76
2022-08-25T19:25:08.607Z,59.71
2022-08-25T19:27:58.744Z,60.04
2022-08-25T19:30:50.138Z,60.22
2022-08-25T19:33:45.251Z,60.46
2022-08-25T19:43:56.504Z,60.68
2022-08-25T19:46:32.949Z,60.85
2022-08-25T19:49:07.760Z,60.94
2022-08-25T19:51:40.273Z,61.52
2022-08-25T19:54:10.464Z,61.34
2022-08-25T19:56:43.952Z,61.11
2022-08-25T19:59:42.669Z,60.68
2022-08-25T20:02:15.434Z,60.77
2022-08-25T20:04:49.349Z,60.71
2022-08-25T20:07:22.884Z,61.05
2022-08-25T20:09:54.035Z,61.09
2022-08-25T20:12:25.301Z,61.31
2022-08-25T20:14:58.041Z,61.73
2022-08-25T20:17:28.610Z,61.86
2022-08-25T20:19:59.272Z,62.27
2022-08-25T20:22:29.834Z,62.43
2022-08-25T20:24:59.135Z,62.49
2022-08-25T20:27:33.462Z,62.82
2022-08-25T20:30:09.017Z,63.27
2022-08-25T20:32:38.020Z,63.51
2022-08-25T20:35:13.115Z,63.84
2022-08-25T20:37:45.897Z,63.93
2022-08-25T20:40:25.777Z,64.32
2022-08-25T20:42:55.760Z,64.46
2022-08-25T20:45:26.980Z,64.83
2022-08-25T20:47:56.731Z,65.04
2022-08-25T20:50:26.383Z,65.53
2022-08-25T20:52:56.903Z,65.61
2022-08-25T20:55:27.814Z,65.93
2022-08-25T20:57:57.240Z,65.73
2022-08-25T21:00:28.231Z,66.00
2022-08-25T21:02:57.534Z,66.02
2022-08-25T21:05:26.937Z,66.05
2022-08-25T21:07:55.935Z,66.28
2022-08-25T21:10:25.647Z,66.03
2022-08-25T21:12:54.728Z,66.24
2022-08-25T21:15:25.824Z,66.74
2022-08-25T21:17:57.059Z,66.69
2022-08-25T21:20:27.567Z,66.57
2022-08-25T21:22:56.800Z,66.59
2022-08-25T21:25:25.975Z,66.78
2022-08-25T21:27:54.696Z,67.05
2022-08-25T21:30:26.622Z,67.90
2022-08-25T21:32:58.795Z,68.36
2022-08-25T21:35:28.135Z,68.52
2022-08-25T21:37:58.152Z,68.30
2022-08-25T21:40:27.141Z,68.44
2022-08-25T21:42:57.016Z,68.18
2022-08-25T21:45:26.352Z,68.28
2022-08-25T21:48:04.599Z,68.31
2022-08-25T21:50:36.117Z,68.10
2022-08-25T21:53:05.155Z,68.25
2022-08-25T21:55:39.103Z,68.37
2022-08-25T21:58:11.032Z,68.77
2022-08-25T22:00:40.319Z,68.94
2022-08-25T22:03:11.111Z,69.12
2022-08-25T22:05:40.561Z,69.23
2022-08-25T22:08:22.164Z,69.49
2022-08-25T22:11:02.606Z,69.69
2022-08-25T22:13:50.423Z,70.06
2022-08-25T22:16:30.093Z,70.14
2022-08-25T22:19:12.556Z,69.89
2022-08-25T22:21:47.636Z,69.75
2022-08-25T22:24:28.553Z,69.38
2022-08-25T22:27:17.144Z,69.19
2022-08-25T22:30:01.954Z,69.27
2022-08-25T22:32:43.246Z,69.45
2022-08-25T22:35:30.873Z,69.59
2022-08-25T22:38:12.199Z,69.55
2022-08-25T22:40:52.606Z,69.89
2022-08-25T22:43:27.121Z,69.98
2022-08-25T22:46:14.812Z,69.76
2022-08-25T22:48:53.481Z,69.87
2022-08-25T22:51:42.268Z,70.39
2022-08-25T22:54:18.384Z,70.39
2022-08-25T22:57:05.912Z,70.49
2022-08-25T23:02:53.603Z,71.26
2022-08-25T23:05:29.696Z,71.52
2022-08-25T23:08:16.592Z,71.35
2022-08-25T23:11:11.043Z,71.23
2022-08-25T23:13:42.003Z,71.28
2022-08-25T23:16:12.244Z,71.01
2022-08-25T23:18:43.969Z,70.89
2022-08-25T23:21:35.002Z,71.24
2022-08-25T23:24:08.821Z,71.52
2022-08-25T23:26:41.957Z,71.16
2022-08-25T23:29:18.370Z,71.04
2022-08-25T23:31:51.924Z,71.34
2022-08-25T23:34:22.668Z,71.80
2022-08-25T23:36:51.811Z,71.67
2022-08-25T23:39:22.456Z,71.55
2022-08-25T23:41:52.480Z,71.50
2022-08-25T23:44:23.252Z,71.50
2022-08-25T23:46:54.669Z,71.43
2022-08-25T23:49:24.775Z,71.76
2022-08-25T23:51:56.541Z,72.13
2022-08-25T23:54:31.135Z,72.30
2022-08-25T23:57:00.256Z,72.43
2022-08-25T23:59:30.136Z,72.39
